sensor_id;sensor_type;location;lat;lon;timestamp;P1;durP1;ratioP1;P2;durP2;ratioP2
38025;SDS011;23836;48.430;9.888;2022-07-29T00:04:46;10.98;;;5.78;;
38025;SDS011;23836;48.430;9.888;2022-07-29T00:09:36;10.18;;;6.03;;
38025;SDS011;23836;48.430;9.888;2022-07-29T00:14:27;13.00;;;5.93;;
38025;SDS011;23836;48.430;9.888;2022-07-29T00:19:18;13.10;;;6.82;;
38025;SDS011;23836;48.430;9.888;2022-07-29T00:24:09;111.63;;;11.25;;
38025;SDS011;23836;48.430;9.888;2022-07-29T00:28:59;18.52;;;9.82;;
38025;SDS011;23836;48.430;9.888;2022-07-29T00:33:51;19.58;;;10.38;;
38025;SDS011;23836;48.430;9.888;2022-07-29T00:38:41;20.85;;;9.73;;
38025;SDS011;23836;48.430;9.888;2022-07-29T00:43:35;14.02;;;10.20;;
38025;SDS011;23836;48.430;9.888;2022-07-29T00:48:25;18.07;;;10.80;;
38025;SDS011;23836;48.430;9.888;2022-07-29T00:53:15;18.60;;;12.88;;
38025;SDS011;23836;48.430;9.888;2022-07-29T00:58:06;23.17;;;13.52;;
38025;SDS011;23836;48.430;9.888;2022-07-29T01:02:57;23.15;;;15.75;;
38025;SDS011;23836;48.430;9.888;2022-07-29T01:07:48;23.60;;;13.82;;
38025;SDS011;23836;48.430;9.888;2022-07-29T01:12:41;19.90;;;13.05;;
38025;SDS011;23836;48.430;9.888;2022-07-29T01:33:10;24.25;;;11.48;;
38025;SDS011;23836;48.430;9.888;2022-07-29T01:38:23;14.13;;;10.05;;
38025;SDS011;23836;48.430;9.888;2022-07-29T01:43:23;13.15;;;9.30;;
38025;SDS011;23836;48.430;9.888;2022-07-29T01:48:21;22.40;;;10.88;;
38025;SDS011;23836;48.430;9.888;2022-07-29T01:53:15;20.85;;;10.45;;
38025;SDS011;23836;48.430;9.888;2022-07-29T01:58:19;16.88;;;10.70;;
38025;SDS011;23836;48.430;9.888;2022-07-29T02:03:11;17.02;;;9.40;;
38025;SDS011;23836;48.430;9.888;2022-07-29T02:08:03;16.73;;;9.98;;
38025;SDS011;23836;48.430;9.888;2022-07-29T02:12:56;13.80;;;9.88;;
38025;SDS011;23836;48.430;9.888;2022-07-29T02:17:51;20.08;;;10.57;;
38025;SDS011;23836;48.430;9.888;2022-07-29T02:22:46;15.90;;;10.73;;
38025;SDS011;23836;48.430;9.888;2022-07-29T02:27:38;13.35;;;9.23;;
38025;SDS011;23836;48.430;9.888;2022-07-29T02:32:31;21.85;;;9.65;;
38025;SDS011;23836;48.430;9.888;2022-07-29T02:37:25;15.75;;;11.52;;
38025;SDS011;23836;48.430;9.888;2022-07-29T02:42:17;15.43;;;10.52;;
38025;SDS011;23836;48.430;9.888;2022-07-29T02:47:19;17.00;;;9.23;;
38025;SDS011;23836;48.430;9.888;2022-07-29T02:52:31;13.27;;;8.45;;
38025;SDS011;23836;48.430;9.888;2022-07-29T02:57:40;15.85;;;8.68;;
38025;SDS011;23836;48.430;9.888;2022-07-29T03:02:33;16.00;;;8.18;;
38025;SDS011;23836;48.430;9.888;2022-07-29T03:07:27;14.20;;;8.30;;
38025;SDS011;23836;48.430;9.888;2022-07-29T03:12:19;10.93;;;8.18;;
38025;SDS011;23836;48.430;9.888;2022-07-29T03:17:10;20.13;;;8.23;;
38025;SDS011;23836;48.430;9.888;2022-07-29T03:22:01;13.85;;;7.53;;
38025;SDS011;23836;48.430;9.888;2022-07-29T03:26:52;12.30;;;7.10;;
38025;SDS011;23836;48.430;9.888;2022-07-29T03:31:44;13.73;;;8.20;;
38025;SDS011;23836;48.430;9.888;2022-07-29T03:36:34;14.60;;;7.40;;
38025;SDS011;23836;48.430;9.888;2022-07-29T03:41:24;8.68;;;5.97;;
38025;SDS011;23836;48.430;9.888;2022-07-29T03:46:15;14.27;;;6.53;;
38025;SDS011;23836;48.430;9.888;2022-07-29T03:51:07;11.52;;;7.40;;
38025;SDS011;23836;48.430;9.888;2022-07-29T03:55:58;10.63;;;6.30;;
38025;SDS011;23836;48.430;9.888;2022-07-29T04:00:51;9.30;;;6.45;;
38025;SDS011;23836;48.430;9.888;2022-07-29T04:05:43;13.95;;;6.20;;
38025;SDS011;23836;48.430;9.888;2022-07-29T04:10:34;12.03;;;6.20;;
38025;SDS011;23836;48.430;9.888;2022-07-29T04:15:24;11.65;;;4.15;;
38025;SDS011;23836;48.430;9.888;2022-07-29T04:20:15;6.03;;;4.20;;
38025;SDS011;23836;48.430;9.888;2022-07-29T04:25:05;7.45;;;5.22;;
38025;SDS011;23836;48.430;9.888;2022-07-29T04:29:56;8.93;;;5.15;;
38025;SDS011;23836;48.430;9.888;2022-07-29T04:34:47;9.70;;;4.90;;
38025;SDS011;23836;48.430;9.888;2022-07-29T04:39:37;6.13;;;4.43;;
38025;SDS011;23836;48.430;9.888;2022-07-29T04:44:28;6.93;;;3.83;;
38025;SDS011;23836;48.430;9.888;2022-07-29T04:49:18;6.53;;;3.75;;
38025;SDS011;23836;48.430;9.888;2022-07-29T04:54:09;3.77;;;3.00;;
38025;SDS011;23836;48.430;9.888;2022-07-29T04:58:59;8.87;;;4.47;;
38025;SDS011;23836;48.430;9.888;2022-07-29T05:03:49;9.43;;;3.47;;
38025;SDS011;23836;48.430;9.888;2022-07-29T05:08:40;12.60;;;3.40;;
38025;SDS011;23836;48.430;9.888;2022-07-29T05:13:30;4.38;;;2.65;;
38025;SDS011;23836;48.430;9.888;2022-07-29T05:18:20;8.30;;;2.63;;
38025;SDS011;23836;48.430;9.888;2022-07-29T05:23:11;7.90;;;2.90;;
38025;SDS011;23836;48.430;9.888;2022-07-29T05:28:02;6.32;;;3.70;;
38025;SDS011;23836;48.430;9.888;2022-07-29T05:32:53;8.63;;;3.25;;
38025;SDS011;23836;48.430;9.888;2022-07-29T05:37:43;4.50;;;2.80;;
38025;SDS011;23836;48.430;9.888;2022-07-29T05:42:34;6.78;;;3.88;;
38025;SDS011;23836;48.430;9.888;2022-07-29T05:47:25;7.03;;;3.28;;
38025;SDS011;23836;48.430;9.888;2022-07-29T05:52:15;3.95;;;2.95;;
38025;SDS011;23836;48.430;9.888;2022-07-29T05:57:06;4.30;;;3.30;;
38025;SDS011;23836;48.430;9.888;2022-07-29T06:01:57;6.95;;;2.90;;
38025;SDS011;23836;48.430;9.888;2022-07-29T06:06:48;6.38;;;2.83;;
38025;SDS011;23836;48.430;9.888;2022-07-29T06:11:38;5.05;;;2.78;;
38025;SDS011;23836;48.430;9.888;2022-07-29T06:16:28;4.63;;;3.00;;
38025;SDS011;23836;48.430;9.888;2022-07-29T06:21:19;9.00;;;3.22;;
38025;SDS011;23836;48.430;9.888;2022-07-29T06:26:10;7.13;;;3.47;;
38025;SDS011;23836;48.430;9.888;2022-07-29T06:31:00;6.43;;;3.80;;
38025;SDS011;23836;48.430;9.888;2022-07-29T06:35:50;4.53;;;3.10;;
38025;SDS011;23836;48.430;9.888;2022-07-29T06:40:44;7.32;;;4.00;;
38025;SDS011;23836;48.430;9.888;2022-07-29T06:45:50;6.70;;;4.25;;
38025;SDS011;23836;48.430;9.888;2022-07-29T06:50:41;8.20;;;3.92;;
38025;SDS011;23836;48.430;9.888;2022-07-29T06:55:31;13.43;;;4.23;;
38025;SDS011;23836;48.430;9.888;2022-07-29T07:00:21;6.18;;;3.50;;
38025;SDS011;23836;48.430;9.888;2022-07-29T07:05:12;8.40;;;4.03;;
38025;SDS011;23836;48.430;9.888;2022-07-29T07:10:02;11.83;;;3.90;;
38025;SDS011;23836;48.430;9.888;2022-07-29T07:14:53;6.70;;;4.57;;
38025;SDS011;23836;48.430;9.888;2022-07-29T07:19:43;6.13;;;4.17;;
38025;SDS011;23836;48.430;9.888;2022-07-29T07:24:35;10.18;;;4.00;;
38025;SDS011;23836;48.430;9.888;2022-07-29T07:29:25;6.63;;;4.05;;
38025;SDS011;23836;48.430;9.888;2022-07-29T07:34:15;9.90;;;3.77;;
38025;SDS011;23836;48.430;9.888;2022-07-29T07:39:06;8.87;;;4.03;;
38025;SDS011;23836;48.430;9.888;2022-07-29T07:43:56;7.20;;;3.65;;
38025;SDS011;23836;48.430;9.888;2022-07-29T07:48:47;8.00;;;4.50;;
38025;SDS011;23836;48.430;9.888;2022-07-29T07:53:37;5.57;;;4.13;;
38025;SDS011;23836;48.430;9.888;2022-07-29T07:58:27;9.93;;;4.80;;
38025;SDS011;23836;48.430;9.888;2022-07-29T08:03:18;6.03;;;4.60;;
38025;SDS011;23836;48.430;9.888;2022-07-29T08:08:08;6.50;;;4.50;;
38025;SDS011;23836;48.430;9.888;2022-07-29T08:12:59;6.05;;;4.93;;
38025;SDS011;23836;48.430;9.888;2022-07-29T08:17:52;8.57;;;4.95;;
38025;SDS011;23836;48.430;9.888;2022-07-29T08:22:42;10.83;;;4.17;;
38025;SDS011;23836;48.430;9.888;2022-07-29T08:27:33;11.43;;;4.87;;
38025;SDS011;23836;48.430;9.888;2022-07-29T08:32:24;9.07;;;4.22;;
38025;SDS011;23836;48.430;9.888;2022-07-29T08:37:15;5.43;;;3.40;;
38025;SDS011;23836;48.430;9.888;2022-07-29T08:42:05;4.30;;;3.05;;
38025;SDS011;23836;48.430;9.888;2022-07-29T08:46:56;5.22;;;3.22;;
38025;SDS011;23836;48.430;9.888;2022-07-29T08:51:46;5.97;;;3.17;;
38025;SDS011;23836;48.430;9.888;2022-07-29T08:56:37;6.82;;;4.03;;
38025;SDS011;23836;48.430;9.888;2022-07-29T09:01:29;15.60;;;6.45;;
38025;SDS011;23836;48.430;9.888;2022-07-29T09:06:22;12.10;;;3.72;;
38025;SDS011;23836;48.430;9.888;2022-07-29T09:11:17;5.80;;;3.65;;
38025;SDS011;23836;48.430;9.888;2022-07-29T09:16:08;7.35;;;3.35;;
38025;SDS011;23836;48.430;9.888;2022-07-29T09:20:59;5.63;;;3.72;;
38025;SDS011;23836;48.430;9.888;2022-07-29T09:26:08;3.90;;;2.90;;
38025;SDS011;23836;48.430;9.888;2022-07-29T09:30:59;5.82;;;3.13;;
38025;SDS011;23836;48.430;9.888;2022-07-29T09:36:01;3.93;;;2.67;;
38025;SDS011;23836;48.430;9.888;2022-07-29T09:40:57;7.75;;;3.50;;
38025;SDS011;23836;48.430;9.888;2022-07-29T09:45:51;7.47;;;4.20;;
38025;SDS011;23836;48.430;9.888;2022-07-29T09:50:43;7.95;;;4.60;;
38025;SDS011;23836;48.430;9.888;2022-07-29T09:55:56;6.38;;;4.05;;
38025;SDS011;23836;48.430;9.888;2022-07-29T10:00:45;8.93;;;3.40;;
38025;SDS011;23836;48.430;9.888;2022-07-29T10:05:37;8.95;;;3.53;;
38025;SDS011;23836;48.430;9.888;2022-07-29T10:10:30;10.48;;;3.40;;
38025;SDS011;23836;48.430;9.888;2022-07-29T10:15:22;4.28;;;2.80;;
38025;SDS011;23836;48.430;9.888;2022-07-29T10:20:15;6.57;;;2.83;;
38025;SDS011;23836;48.430;9.888;2022-07-29T10:25:06;10.40;;;2.97;;
38025;SDS011;23836;48.430;9.888;2022-07-29T10:29:57;4.10;;;2.42;;
38025;SDS011;23836;48.430;9.888;2022-07-29T10:45:31;7.68;;;2.55;;
38025;SDS011;23836;48.430;9.888;2022-07-29T10:50:22;5.05;;;2.22;;
38025;SDS011;23836;48.430;9.888;2022-07-29T11:00:27;7.60;;;3.05;;
38025;SDS011;23836;48.430;9.888;2022-07-29T11:05:20;5.33;;;2.43;;
38025;SDS011;23836;48.430;9.888;2022-07-29T11:15:04;14.45;;;3.38;;
38025;SDS011;23836;48.430;9.888;2022-07-29T11:25:31;4.38;;;2.20;;
38025;SDS011;23836;48.430;9.888;2022-07-29T11:30:22;5.75;;;2.47;;
38025;SDS011;23836;48.430;9.888;2022-07-29T11:35:42;3.03;;;2.28;;
38025;SDS011;23836;48.430;9.888;2022-07-29T11:46:07;4.13;;;2.45;;
38025;SDS011;23836;48.430;9.888;2022-07-29T11:50:59;4.47;;;2.22;;
38025;SDS011;23836;48.430;9.888;2022-07-29T11:55:49;6.75;;;2.17;;
38025;SDS011;23836;48.430;9.888;2022-07-29T12:00:45;2.78;;;1.92;;
38025;SDS011;23836;48.430;9.888;2022-07-29T12:05:41;3.72;;;1.67;;
38025;SDS011;23836;48.430;9.888;2022-07-29T12:10:34;4.73;;;1.70;;
38025;SDS011;23836;48.430;9.888;2022-07-29T12:15:25;4.65;;;1.83;;
38025;SDS011;23836;48.430;9.888;2022-07-29T12:20:26;3.65;;;1.88;;
38025;SDS011;23836;48.430;9.888;2022-07-29T12:25:20;6.85;;;2.38;;
38025;SDS011;23836;48.430;9.888;2022-07-29T12:30:13;2.97;;;1.80;;
38025;SDS011;23836;48.430;9.888;2022-07-29T12:35:06;2.80;;;1.50;;
38025;SDS011;23836;48.430;9.888;2022-07-29T12:40:02;3.80;;;1.98;;
38025;SDS011;23836;48.430;9.888;2022-07-29T12:44:54;7.22;;;1.70;;
38025;SDS011;23836;48.430;9.888;2022-07-29T12:49:45;8.45;;;2.15;;
38025;SDS011;23836;48.430;9.888;2022-07-29T12:54:36;8.57;;;1.98;;
38025;SDS011;23836;48.430;9.888;2022-07-29T12:59:37;4.05;;;2.00;;
38025;SDS011;23836;48.430;9.888;2022-07-29T13:04:28;5.95;;;2.15;;
38025;SDS011;23836;48.430;9.888;2022-07-29T13:09:21;7.50;;;2.10;;
38025;SDS011;23836;48.430;9.888;2022-07-29T13:14:14;5.88;;;2.05;;
38025;SDS011;23836;48.430;9.888;2022-07-29T13:19:32;6.57;;;2.20;;
38025;SDS011;23836;48.430;9.888;2022-07-29T13:24:33;13.52;;;3.60;;
38025;SDS011;23836;48.430;9.888;2022-07-29T13:29:23;26.77;;;6.55;;
38025;SDS011;23836;48.430;9.888;2022-07-29T13:34:14;13.02;;;3.90;;
38025;SDS011;23836;48.430;9.888;2022-07-29T13:39:04;7.80;;;3.53;;
38025;SDS011;23836;48.430;9.888;2022-07-29T13:43:55;8.63;;;3.00;;
38025;SDS011;23836;48.430;9.888;2022-07-29T13:48:45;14.05;;;3.50;;
38025;SDS011;23836;48.430;9.888;2022-07-29T13:53:36;6.22;;;3.40;;
38025;SDS011;23836;48.430;9.888;2022-07-29T13:58:26;7.10;;;3.83;;
38025;SDS011;23836;48.430;9.888;2022-07-29T14:03:17;11.02;;;7.00;;
38025;SDS011;23836;48.430;9.888;2022-07-29T14:08:07;11.73;;;7.50;;
38025;SDS011;23836;48.430;9.888;2022-07-29T14:12:57;14.30;;;9.85;;
38025;SDS011;23836;48.430;9.888;2022-07-29T14:17:48;14.27;;;8.13;;
38025;SDS011;23836;48.430;9.888;2022-07-29T14:22:38;15.80;;;8.10;;
38025;SDS011;23836;48.430;9.888;2022-07-29T14:27:29;8.25;;;5.53;;
38025;SDS011;23836;48.430;9.888;2022-07-29T14:32:19;10.60;;;7.03;;
38025;SDS011;23836;48.430;9.888;2022-07-29T14:37:09;11.02;;;6.00;;
38025;SDS011;23836;48.430;9.888;2022-07-29T14:42:00;9.33;;;6.20;;
38025;SDS011;23836;48.430;9.888;2022-07-29T14:46:50;13.45;;;5.05;;
38025;SDS011;23836;48.430;9.888;2022-07-29T14:51:41;7.25;;;4.47;;
38025;SDS011;23836;48.430;9.888;2022-07-29T14:56:31;7.17;;;4.80;;
38025;SDS011;23836;48.430;9.888;2022-07-29T15:01:21;13.55;;;5.13;;
38025;SDS011;23836;48.430;9.888;2022-07-29T15:06:12;12.07;;;5.07;;
38025;SDS011;23836;48.430;9.888;2022-07-29T15:11:02;10.23;;;5.20;;
38025;SDS011;23836;48.430;9.888;2022-07-29T15:15:52;8.98;;;4.28;;
38025;SDS011;23836;48.430;9.888;2022-07-29T15:20:43;13.60;;;5.15;;
38025;SDS011;23836;48.430;9.888;2022-07-29T15:25:36;6.57;;;4.45;;
38025;SDS011;23836;48.430;9.888;2022-07-29T15:30:26;6.05;;;3.70;;
38025;SDS011;23836;48.430;9.888;2022-07-29T15:35:17;7.93;;;4.22;;
38025;SDS011;23836;48.430;9.888;2022-07-29T15:40:08;8.85;;;4.40;;
38025;SDS011;23836;48.430;9.888;2022-07-29T15:44:59;8.10;;;4.93;;
38025;SDS011;23836;48.430;9.888;2022-07-29T15:49:52;9.93;;;5.43;;
38025;SDS011;23836;48.430;9.888;2022-07-29T15:54:43;15.57;;;6.30;;
38025;SDS011;23836;48.430;9.888;2022-07-29T15:59:35;12.05;;;5.50;;
38025;SDS011;23836;48.430;9.888;2022-07-29T16:04:25;13.02;;;6.20;;
38025;SDS011;23836;48.430;9.888;2022-07-29T16:09:16;7.53;;;5.50;;
38025;SDS011;23836;48.430;9.888;2022-07-29T16:14:07;9.43;;;5.60;;
38025;SDS011;23836;48.430;9.888;2022-07-29T16:18:59;10.00;;;5.85;;
38025;SDS011;23836;48.430;9.888;2022-07-29T16:23:50;12.55;;;7.03;;
38025;SDS011;23836;48.430;9.888;2022-07-29T16:28:40;9.88;;;6.32;;
38025;SDS011;23836;48.430;9.888;2022-07-29T16:33:31;8.77;;;5.18;;
38025;SDS011;23836;48.430;9.888;2022-07-29T16:38:21;13.75;;;5.18;;
38025;SDS011;23836;48.430;9.888;2022-07-29T16:43:11;10.07;;;5.43;;
38025;SDS011;23836;48.430;9.888;2022-07-29T16:48:02;15.20;;;6.20;;
38025;SDS011;23836;48.430;9.888;2022-07-29T16:52:53;12.27;;;5.93;;
38025;SDS011;23836;48.430;9.888;2022-07-29T16:57:44;11.93;;;6.70;;
38025;SDS011;23836;48.430;9.888;2022-07-29T17:02:35;8.77;;;5.47;;
38025;SDS011;23836;48.430;9.888;2022-07-29T17:07:27;9.73;;;6.68;;
38025;SDS011;23836;48.430;9.888;2022-07-29T17:12:18;8.45;;;6.22;;
38025;SDS011;23836;48.430;9.888;2022-07-29T17:17:08;14.00;;;6.10;;
38025;SDS011;23836;48.430;9.888;2022-07-29T17:21:58;10.23;;;6.40;;
38025;SDS011;23836;48.430;9.888;2022-07-29T17:26:50;11.32;;;6.38;;
38025;SDS011;23836;48.430;9.888;2022-07-29T17:31:40;11.68;;;6.65;;
38025;SDS011;23836;48.430;9.888;2022-07-29T17:36:30;13.23;;;7.07;;
38025;SDS011;23836;48.430;9.888;2022-07-29T17:41:21;9.60;;;6.22;;
38025;SDS011;23836;48.430;9.888;2022-07-29T17:46:13;14.52;;;6.18;;
38025;SDS011;23836;48.430;9.888;2022-07-29T17:51:03;10.00;;;6.40;;
38025;SDS011;23836;48.430;9.888;2022-07-29T17:55:54;12.25;;;6.13;;
38025;SDS011;23836;48.430;9.888;2022-07-29T18:00:45;17.98;;;7.78;;
38025;SDS011;23836;48.430;9.888;2022-07-29T18:05:35;12.80;;;6.80;;
38025;SDS011;23836;48.430;9.888;2022-07-29T18:10:26;12.15;;;7.75;;
38025;SDS011;23836;48.430;9.888;2022-07-29T18:15:16;9.63;;;7.32;;
38025;SDS011;23836;48.430;9.888;2022-07-29T18:20:07;11.75;;;7.28;;
38025;SDS011;23836;48.430;9.888;2022-07-29T18:24:58;13.82;;;7.50;;
38025;SDS011;23836;48.430;9.888;2022-07-29T18:29:48;13.80;;;7.88;;
38025;SDS011;23836;48.430;9.888;2022-07-29T18:34:39;11.17;;;7.17;;
38025;SDS011;23836;48.430;9.888;2022-07-29T18:39:29;15.03;;;7.67;;
38025;SDS011;23836;48.430;9.888;2022-07-29T18:44:20;11.07;;;7.82;;
38025;SDS011;23836;48.430;9.888;2022-07-29T18:49:10;13.90;;;7.78;;
38025;SDS011;23836;48.430;9.888;2022-07-29T18:54:01;11.55;;;7.63;;
38025;SDS011;23836;48.430;9.888;2022-07-29T18:58:52;13.52;;;6.88;;
38025;SDS011;23836;48.430;9.888;2022-07-29T19:03:42;11.85;;;7.15;;
38025;SDS011;23836;48.430;9.888;2022-07-29T19:08:32;16.80;;;7.55;;
38025;SDS011;23836;48.430;9.888;2022-07-29T19:13:23;13.10;;;7.32;;
38025;SDS011;23836;48.430;9.888;2022-07-29T19:18:13;8.88;;;7.10;;
38025;SDS011;23836;48.430;9.888;2022-07-29T19:23:04;12.35;;;6.80;;
38025;SDS011;23836;48.430;9.888;2022-07-29T19:27:54;14.35;;;7.65;;
38025;SDS011;23836;48.430;9.888;2022-07-29T19:32:45;13.50;;;8.05;;
38025;SDS011;23836;48.430;9.888;2022-07-29T19:37:35;12.68;;;7.40;;
38025;SDS011;23836;48.430;9.888;2022-07-29T19:42:26;15.80;;;8.30;;
38025;SDS011;23836;48.430;9.888;2022-07-29T19:47:16;12.05;;;8.25;;
38025;SDS011;23836;48.430;9.888;2022-07-29T19:52:06;23.58;;;8.63;;
38025;SDS011;23836;48.430;9.888;2022-07-29T19:56:57;14.17;;;9.90;;
38025;SDS011;23836;48.430;9.888;2022-07-29T20:01:47;14.18;;;8.27;;
38025;SDS011;23836;48.430;9.888;2022-07-29T20:06:38;19.63;;;10.13;;
38025;SDS011;23836;48.430;9.888;2022-07-29T20:11:28;16.05;;;9.35;;
38025;SDS011;23836;48.430;9.888;2022-07-29T20:16:18;14.03;;;8.37;;
38025;SDS011;23836;48.430;9.888;2022-07-29T20:21:09;16.50;;;8.52;;
38025;SDS011;23836;48.430;9.888;2022-07-29T20:25:59;13.03;;;8.47;;
38025;SDS011;23836;48.430;9.888;2022-07-29T20:30:50;16.23;;;10.48;;
38025;SDS011;23836;48.430;9.888;2022-07-29T20:35:41;14.20;;;10.43;;
38025;SDS011;23836;48.430;9.888;2022-07-29T20:40:32;16.48;;;9.40;;
38025;SDS011;23836;48.430;9.888;2022-07-29T20:45:24;14.85;;;10.00;;
38025;SDS011;23836;48.430;9.888;2022-07-29T20:50:15;14.63;;;9.18;;
38025;SDS011;23836;48.430;9.888;2022-07-29T20:55:06;13.05;;;8.98;;
38025;SDS011;23836;48.430;9.888;2022-07-29T20:59:57;13.90;;;9.30;;
38025;SDS011;23836;48.430;9.888;2022-07-29T21:04:48;17.10;;;9.40;;
38025;SDS011;23836;48.430;9.888;2022-07-29T21:09:38;20.23;;;8.73;;
38025;SDS011;23836;48.430;9.888;2022-07-29T21:14:29;17.40;;;8.85;;
38025;SDS011;23836;48.430;9.888;2022-07-29T21:19:19;19.90;;;10.38;;
38025;SDS011;23836;48.430;9.888;2022-07-29T21:24:09;21.60;;;10.63;;
38025;SDS011;23836;48.430;9.888;2022-07-29T21:29:00;17.77;;;10.00;;
38025;SDS011;23836;48.430;9.888;2022-07-29T21:33:50;23.45;;;9.95;;
38025;SDS011;23836;48.430;9.888;2022-07-29T21:38:41;21.45;;;10.48;;
38025;SDS011;23836;48.430;9.888;2022-07-29T21:43:31;22.92;;;10.88;;
38025;SDS011;23836;48.430;9.888;2022-07-29T21:48:22;17.67;;;10.10;;
38025;SDS011;23836;48.430;9.888;2022-07-29T21:53:13;22.67;;;10.70;;
38025;SDS011;23836;48.430;9.888;2022-07-29T21:58:04;15.68;;;10.57;;
38025;SDS011;23836;48.430;9.888;2022-07-29T22:02:55;19.27;;;10.85;;
38025;SDS011;23836;48.430;9.888;2022-07-29T22:07:45;15.40;;;11.07;;
38025;SDS011;23836;48.430;9.888;2022-07-29T22:12:37;19.15;;;10.50;;
38025;SDS011;23836;48.430;9.888;2022-07-29T22:17:28;17.02;;;9.85;;
38025;SDS011;23836;48.430;9.888;2022-07-29T22:22:18;16.75;;;10.98;;
38025;SDS011;23836;48.430;9.888;2022-07-29T22:27:09;14.45;;;9.73;;
38025;SDS011;23836;48.430;9.888;2022-07-29T22:31:59;21.10;;;11.32;;
38025;SDS011;23836;48.430;9.888;2022-07-29T22:36:50;23.10;;;11.37;;
38025;SDS011;23836;48.430;9.888;2022-07-29T22:41:40;16.15;;;10.75;;
38025;SDS011;23836;48.430;9.888;2022-07-29T22:46:34;21.35;;;11.18;;
38025;SDS011;23836;48.430;9.888;2022-07-29T22:51:24;15.18;;;10.93;;
38025;SDS011;23836;48.430;9.888;2022-07-29T22:56:15;19.08;;;10.90;;
38025;SDS011;23836;48.430;9.888;2022-07-29T23:01:07;13.57;;;9.85;;
38025;SDS011;23836;48.430;9.888;2022-07-29T23:05:57;15.20;;;10.95;;
38025;SDS011;23836;48.430;9.888;2022-07-29T23:10:48;17.40;;;11.73;;
38025;SDS011;23836;48.430;9.888;2022-07-29T23:15:38;12.23;;;9.75;;
38025;SDS011;23836;48.430;9.888;2022-07-29T23:20:28;23.98;;;11.93;;
38025;SDS011;23836;48.430;9.888;2022-07-29T23:25:19;24.90;;;11.35;;
38025;SDS011;23836;48.430;9.888;2022-07-29T23:30:10;14.20;;;10.70;;
38025;SDS011;23836;48.430;9.888;2022-07-29T23:35:00;20.73;;;11.40;;
38025;SDS011;23836;48.430;9.888;2022-07-29T23:39:51;25.67;;;13.05;;
38025;SDS011;23836;48.430;9.888;2022-07-29T23:44:41;40.50;;;13.10;;
38025;SDS011;23836;48.430;9.888;2022-07-29T23:49:31;24.15;;;14.02;;
38025;SDS011;23836;48.430;9.888;2022-07-29T23:54:23;20.70;;;14.50;;
38025;SDS011;23836;48.430;9.888;2022-07-29T23:59:13;19.17;;;14.43;;
